Time;durP1;ratioP1;P1;durP2;ratioP2;P2;SDS_P1;SDS_P2;PMS_P1;PMS_P2;Temp;Humidity;BMP_temperature;BMP_pressure;BME280_temperature;BME280_humidity;BME280_pressure;Samples;Min_cycle;Max_cycle;Signal;HPM_P1;HPM_P2
2023/11/11 00:01:22;;;;;;;3.03;2.83;;;17.80;65.30;;;;;;4999705;28;20452;-77
2023/11/11 00:03:50;;;;;;;2.87;2.67;;;17.80;65.20;;;;;;5012030;28;20476;-77
2023/11/11 00:06:20;;;;;;;2.93;2.73;;;17.80;65.20;;;;;;4994848;28;20449;-78
2023/11/11 00:08:51;;;;;;;3.13;2.83;;;17.80;65.50;;;;;;4999693;28;20479;-76
2023/11/11 00:11:24;;;;;;;3.50;3.20;;;17.80;65.50;;;;;;5002438;28;20444;-77
2023/11/11 00:13:56;;;;;;;4.00;3.20;;;17.80;65.20;;;;;;5013496;28;20807;-76
2023/11/11 00:16:24;;;;;;;3.47;3.17;;;17.80;65.60;;;;;;5009383;28;20445;-76
2023/11/11 00:18:53;;;;;;;3.30;3.00;;;17.80;65.50;;;;;;5005897;28;20476;-77
2023/11/11 00:21:23;;;;;;;4.10;2.60;;;17.80;65.50;;;;;;4994687;28;20452;-77
2023/11/11 00:23:56;;;;;;;2.93;2.63;;;17.80;65.60;;;;;;5003018;28;20533;-77
2023/11/11 00:26:24;;;;;;;2.90;2.57;;;17.80;65.60;;;;;;5004128;28;20455;-80
2023/11/11 00:28:53;;;;;;;4.90;2.67;;;17.80;65.50;;;;;;5008970;28;20891;-76
2023/11/11 00:31:23;;;;;;;3.83;3.00;;;17.80;65.40;;;;;;5015793;28;20448;-77
2023/11/11 00:33:54;;;;;;;3.20;2.90;;;17.80;65.60;;;;;;5009123;28;20480;-77
2023/11/11 00:36:23;;;;;;;3.50;3.20;;;17.80;65.70;;;;;;4998060;28;20451;-77
2023/11/11 00:38:54;;;;;;;3.77;3.27;;;17.80;65.60;;;;;;5001288;28;20466;-77
2023/11/11 00:41:23;;;;;;;2.93;2.83;;;17.80;65.80;;;;;;5006667;28;20455;-77
2023/11/11 00:43:51;;;;;;;3.77;3.00;;;17.70;65.60;;;;;;5000595;28;20561;-77
2023/11/11 00:46:20;;;;;;;2.70;2.50;;;17.80;65.70;;;;;;4998365;28;20452;-78
2023/11/11 00:48:50;;;;;;;3.67;2.80;;;17.70;65.70;;;;;;5000040;28;20461;-78
2023/11/11 00:51:20;;;;;;;3.50;2.70;;;17.70;65.70;;;;;;5002608;28;20449;-77
2023/11/11 00:53:49;;;;;;;3.10;2.90;;;17.70;66.00;;;;;;5004649;28;20503;-77
2023/11/11 00:56:20;;;;;;;3.67;2.83;;;17.70;65.70;;;;;;5014439;28;20503;-77
2023/11/11 00:58:49;;;;;;;3.17;2.97;;;17.70;65.70;;;;;;4995509;28;20468;-78
2023/11/11 01:01:19;;;;;;;3.00;2.80;;;17.70;65.80;;;;;;5000669;28;20804;-80
2023/11/11 01:03:48;;;;;;;2.93;2.70;;;17.70;66.20;;;;;;5009843;28;20445;-79
2023/11/11 01:06:17;;;;;;;5.33;3.70;;;17.70;65.90;;;;;;5002950;28;20447;-78
2023/11/11 01:08:47;;;;;;;3.00;2.70;;;17.70;66.20;;;;;;5000642;28;20457;-77
2023/11/11 01:11:16;;;;;;;3.27;3.07;;;17.70;65.90;;;;;;4998659;28;20451;-76
2023/11/11 01:13:48;;;;;;;4.27;3.10;;;17.70;66.10;;;;;;5003203;28;20442;-76
2023/11/11 01:16:17;;;;;;;3.33;3.10;;;17.70;66.10;;;;;;5011231;28;20454;-77
2023/11/11 01:18:46;;;;;;;3.00;2.80;;;17.80;66.00;;;;;;5006917;28;20469;-77
2023/11/11 01:21:14;;;;;;;3.40;3.10;;;17.70;66.20;;;;;;5004546;28;20462;-77
2023/11/11 01:23:43;;;;;;;3.50;3.20;;;17.70;66.20;;;;;;4996859;28;20452;-77
2023/11/11 01:26:12;;;;;;;4.17;3.10;;;17.70;66.10;;;;;;4995858;28;20537;-77
2023/11/11 01:28:40;;;;;;;3.73;3.20;;;17.70;66.10;;;;;;4997275;28;20476;-76
2023/11/11 01:31:10;;;;;;;3.03;2.83;;;17.70;66.20;;;;;;5012470;28;20475;-77
2023/11/11 01:33:38;;;;;;;3.30;3.03;;;17.70;66.10;;;;;;5009359;28;20579;-77
2023/11/11 01:36:07;;;;;;;4.17;3.23;;;17.70;66.00;;;;;;4998451;28;20512;-77
2023/11/11 01:38:36;;;;;;;4.50;3.00;;;17.70;66.20;;;;;;5008600;28;20471;-77
2023/11/11 01:41:04;;;;;;;3.43;3.03;;;17.70;66.10;;;;;;5017477;28;20508;-77
2023/11/11 01:43:33;;;;;;;3.40;3.10;;;17.60;66.00;;;;;;5002245;28;20448;-77
2023/11/11 01:46:02;;;;;;;3.10;2.90;;;17.60;66.10;;;;;;5013628;28;20571;-77
2023/11/11 01:48:32;;;;;;;3.93;2.83;;;17.70;66.00;;;;;;4999368;28;20453;-77
2023/11/11 01:51:01;;;;;;;3.27;3.00;;;17.60;66.00;;;;;;5007608;28;20435;-78
2023/11/11 01:53:29;;;;;;;3.27;2.97;;;17.60;65.90;;;;;;4995016;28;20479;-77
2023/11/11 01:55:58;;;;;;;5.83;3.40;;;17.60;66.10;;;;;;5001909;28;20440;-76
2023/11/11 01:58:27;;;;;;;3.40;3.10;;;17.60;65.90;;;;;;5007128;28;20469;-78
2023/11/11 02:00:56;;;;;;;3.77;3.47;;;17.60;66.00;;;;;;5006457;28;20511;-76
2023/11/11 02:03:24;;;;;;;5.27;3.20;;;17.60;65.80;;;;;;5012567;28;20443;-77
2023/11/11 02:05:55;;;;;;;5.00;3.60;;;17.60;66.10;;;;;;5013401;28;20503;-76
2023/11/11 02:08:30;;;;;;;5.20;3.63;;;17.60;66.10;;;;;;5008042;28;20488;-76
2023/11/11 02:10:58;;;;;;;3.53;3.20;;;17.60;66.10;;;;;;5006556;28;20448;-76
2023/11/11 02:13:30;;;;;;;3.50;3.30;;;17.60;66.30;;;;;;5006853;28;20476;-76
2023/11/11 02:15:58;;;;;;;3.30;3.00;;;17.60;66.20;;;;;;4998841;28;20457;-76
2023/11/11 02:18:27;;;;;;;3.87;3.50;;;17.60;66.10;;;;;;4993628;28;20469;-78
2023/11/11 02:20:57;;;;;;;3.80;3.50;;;17.60;66.10;;;;;;4997959;28;20460;-76
2023/11/11 02:23:31;;;;;;;3.70;3.40;;;17.60;66.10;;;;;;5005127;28;20445;-78
2023/11/11 02:26:00;;;;;;;3.80;3.50;;;17.60;66.20;;;;;;5002038;28;20590;-77
2023/11/11 02:28:28;;;;;;;3.83;3.53;;;17.60;66.20;;;;;;5001982;28;20477;-78
2023/11/11 02:31:00;;;;;;;3.70;3.30;;;17.60;66.20;;;;;;5004959;28;20545;-76
2023/11/11 02:33:32;;;;;;;4.63;3.40;;;17.60;65.90;;;;;;5006321;28;20456;-77
2023/11/11 02:36:06;;;;;;;5.60;3.37;;;17.60;66.30;;;;;;5010248;28;20440;-77
2023/11/11 02:38:37;;;;;;;4.73;3.40;;;17.60;66.40;;;;;;5003250;28;20461;-76
2023/11/11 02:41:07;;;;;;;4.07;3.67;;;17.60;66.80;;;;;;5007004;28;20447;-77
2023/11/11 02:43:37;;;;;;;4.73;3.90;;;17.50;66.30;;;;;;5003911;28;20454;-77
2023/11/11 02:46:05;;;;;;;4.70;4.00;;;17.50;66.30;;;;;;5004252;28;20469;-76
2023/11/11 02:48:36;;;;;;;7.13;4.60;;;17.60;66.40;;;;;;5004289;28;20463;-77
2023/11/11 02:51:04;;;;;;;7.10;5.23;;;17.60;66.30;;;;;;4996211;28;20449;-76
2023/11/11 02:53:34;;;;;;;5.90;5.20;;;17.60;66.30;;;;;;4996139;28;20453;-77
2023/11/11 02:56:04;;;;;;;14.40;5.93;;;17.60;66.30;;;;;;4996059;28;20504;-77
2023/11/11 02:58:34;;;;;;;9.47;6.13;;;17.50;66.20;;;;;;4996273;28;20503;-77
2023/11/11 03:01:06;;;;;;;8.87;6.83;;;17.50;66.20;;;;;;4995568;28;20445;-78
2023/11/11 03:03:36;;;;;;;10.30;7.00;;;17.50;66.30;;;;;;4995492;28;20453;-77
2023/11/11 03:06:06;;;;;;;10.70;8.00;;;17.50;66.40;;;;;;4995604;28;20473;-78
2023/11/11 03:08:36;;;;;;;11.23;7.50;;;17.50;66.00;;;;;;4995763;28;20473;-78
2023/11/11 03:11:13;;;;;;;13.53;8.00;;;17.50;66.20;;;;;;4995220;28;20455;-77
2023/11/11 03:13:43;;;;;;;13.20;8.87;;;17.50;66.50;;;;;;4995171;28;20503;-77
2023/11/11 03:16:11;;;;;;;15.77;9.30;;;17.50;66.70;;;;;;4995866;28;20468;-77
2023/11/11 03:18:39;;;;;;;16.57;8.60;;;17.50;66.70;;;;;;4995799;28;20512;-77
2023/11/11 03:21:08;;;;;;;12.20;8.57;;;17.50;66.40;;;;;;4995496;28;20462;-76
2023/11/11 03:23:37;;;;;;;11.70;8.40;;;17.50;66.50;;;;;;4995211;28;20453;-76
2023/11/11 03:26:08;;;;;;;13.33;9.37;;;17.50;66.40;;;;;;4994980;28;20831;-77
2023/11/11 03:28:36;;;;;;;14.93;9.43;;;17.50;66.50;;;;;;5006703;23;20497;-75
2023/11/11 03:31:04;;;;;;;11.40;7.90;;;17.50;66.40;;;;;;4994055;28;20457;-76
2023/11/11 03:33:32;;;;;;;19.50;9.00;;;17.50;66.70;;;;;;4987893;28;20540;-76
2023/11/11 03:36:01;;;;;;;15.57;9.77;;;17.50;66.50;;;;;;4995410;28;20448;-76
2023/11/11 03:38:29;;;;;;;15.90;9.67;;;17.50;66.20;;;;;;4994508;28;20488;-76
2023/11/11 03:40:57;;;;;;;13.57;9.27;;;17.50;66.80;;;;;;4994855;28;20434;-76
2023/11/11 03:43:27;;;;;;;16.07;9.47;;;17.50;66.70;;;;;;4994943;28;20472;-76
2023/11/11 03:45:55;;;;;;;13.53;10.00;;;17.50;66.60;;;;;;4994624;28;20501;-76
2023/11/11 03:48:24;;;;;;;12.10;8.73;;;17.50;66.80;;;;;;4994868;28;20454;-75
2023/11/11 03:50:52;;;;;;;15.07;10.03;;;17.50;66.50;;;;;;4993913;28;20444;-75
2023/11/11 03:53:20;;;;;;;13.60;9.03;;;17.40;66.30;;;;;;4994693;28;20469;-75
2023/11/11 03:55:48;;;;;;;14.83;9.57;;;17.40;66.70;;;;;;4994889;28;20504;-76
2023/11/11 03:58:16;;;;;;;14.20;9.80;;;17.40;66.60;;;;;;4994300;28;20457;-75
2023/11/11 04:00:45;;;;;;;13.33;9.00;;;17.40;66.70;;;;;;4992745;28;20457;-75
2023/11/11 04:03:13;;;;;;;15.90;9.70;;;17.40;66.50;;;;;;4983437;28;20441;-76
2023/11/11 04:05:41;;;;;;;14.13;9.10;;;17.40;66.30;;;;;;4986252;28;20477;-76
2023/11/11 04:08:09;;;;;;;15.30;8.97;;;17.40;66.70;;;;;;4986727;28;20556;-76
2023/11/11 04:10:37;;;;;;;12.17;8.60;;;17.40;66.70;;;;;;4992316;28;20544;-77
2023/11/11 04:13:05;;;;;;;13.67;9.37;;;17.40;66.60;;;;;;4985063;28;20504;-77
2023/11/11 04:15:33;;;;;;;12.70;9.50;;;17.40;66.60;;;;;;5002385;28;20486;-77
2023/11/11 04:18:02;;;;;;;14.03;9.30;;;17.40;66.60;;;;;;4980344;28;20484;-76
2023/11/11 04:20:31;;;;;;;12.10;8.70;;;17.40;66.70;;;;;;4991786;28;20473;-77
2023/11/11 04:22:59;;;;;;;13.63;9.07;;;17.40;66.70;;;;;;4999993;28;20511;-77
2023/11/11 04:25:26;;;;;;;14.50;8.20;;;17.40;66.80;;;;;;4980150;28;20442;-77
2023/11/11 04:27:55;;;;;;;11.50;8.57;;;17.40;66.60;;;;;;4995228;28;20492;-77
2023/11/11 04:30:23;;;;;;;13.10;9.03;;;17.40;66.80;;;;;;4979206;28;20481;-77
2023/11/11 04:32:51;;;;;;;12.53;8.43;;;17.40;66.50;;;;;;4994440;28;20448;-77
2023/11/11 04:35:21;;;;;;;12.17;8.67;;;17.40;66.80;;;;;;4995557;28;20456;-77
2023/11/11 04:37:50;;;;;;;11.10;8.17;;;17.40;66.60;;;;;;5010656;28;20460;-77
2023/11/11 04:40:18;;;;;;;10.37;7.90;;;17.40;66.80;;;;;;5007442;28;20537;-77
2023/11/11 04:42:47;;;;;;;12.10;8.37;;;17.40;66.70;;;;;;4992633;28;20449;-77
2023/11/11 04:45:15;;;;;;;10.57;8.20;;;17.40;66.90;;;;;;5006520;28;20444;-76
2023/11/11 04:47:43;;;;;;;11.23;7.93;;;17.40;66.70;;;;;;4992996;28;20485;-77
2023/11/11 04:50:11;;;;;;;11.00;8.17;;;17.40;66.80;;;;;;4997604;28;20437;-77
2023/11/11 04:52:40;;;;;;;11.80;7.63;;;17.40;66.80;;;;;;4995752;28;20445;-77
2023/11/11 04:55:09;;;;;;;11.30;7.53;;;17.40;66.80;;;;;;4991218;28;20476;-77
2023/11/11 04:57:37;;;;;;;9.70;7.50;;;17.40;66.90;;;;;;4985832;28;20946;-77
2023/11/11 05:00:09;;;;;;;10.10;7.70;;;17.40;66.70;;;;;;4989291;28;20451;-77
2023/11/11 05:02:39;;;;;;;12.90;7.90;;;17.40;66.80;;;;;;4990491;28;20445;-77
2023/11/11 05:05:10;;;;;;;10.80;7.63;;;17.40;66.80;;;;;;4976898;28;20533;-77
2023/11/11 05:07:40;;;;;;;11.03;7.57;;;17.40;66.70;;;;;;4993750;28;21099;-77
2023/11/11 05:10:09;;;;;;;11.47;8.00;;;17.40;66.70;;;;;;4991478;28;20449;-77
2023/11/11 05:12:37;;;;;;;8.77;6.97;;;17.30;66.50;;;;;;4992454;28;20441;-77
2023/11/11 05:15:13;;;;;;;10.77;8.00;;;17.30;67.40;;;;;;4983789;28;20445;-77
2023/11/11 05:17:42;;;;;;;8.77;7.53;;;17.30;66.70;;;;;;4984985;28;20505;-76
2023/11/11 05:20:13;;;;;;;10.83;7.20;;;17.30;66.60;;;;;;4993486;28;20460;-77
2023/11/11 05:22:42;;;;;;;8.30;7.00;;;17.30;66.50;;;;;;4989774;28;20479;-76
2023/11/11 05:25:11;;;;;;;9.57;6.63;;;17.30;66.60;;;;;;4993247;28;20441;-77
2023/11/11 05:27:39;;;;;;;9.37;6.90;;;17.30;66.50;;;;;;4974632;28;20494;-76
2023/11/11 05:30:09;;;;;;;10.47;6.63;;;17.30;66.50;;;;;;4973838;28;20442;-77
2023/11/11 05:32:37;;;;;;;7.77;6.70;;;17.30;66.50;;;;;;4974300;28;20470;-77
2023/11/11 05:35:06;;;;;;;9.60;7.10;;;17.30;66.60;;;;;;4987909;28;20453;-77
2023/11/11 05:37:34;;;;;;;9.83;6.93;;;17.30;66.50;;;;;;4993199;28;20460;-77
2023/11/11 05:40:06;;;;;;;10.20;6.63;;;17.30;66.50;;;;;;4993874;28;20534;-77
2023/11/11 05:42:34;;;;;;;8.30;6.37;;;17.20;66.50;;;;;;4983036;28;20457;-77
2023/11/11 05:45:02;;;;;;;8.80;6.40;;;17.20;66.50;;;;;;4993825;28;20465;-77
2023/11/11 05:47:30;;;;;;;6.80;5.77;;;17.20;66.30;;;;;;4993016;28;20505;-77
2023/11/11 05:49:58;;;;;;;11.33;7.63;;;17.20;66.50;;;;;;4975484;28;20447;-77
2023/11/11 05:52:26;;;;;;;7.33;6.17;;;17.20;66.20;;;;;;4988787;28;20473;-77
2023/11/11 05:54:54;;;;;;;8.10;6.20;;;17.20;66.40;;;;;;4996136;28;20433;-77
2023/11/11 05:57:23;;;;;;;7.70;5.80;;;17.20;66.40;;;;;;4997580;28;20437;-77
2023/11/11 05:59:52;;;;;;;8.60;6.67;;;17.20;66.40;;;;;;4991504;28;20456;-77
2023/11/11 06:02:20;;;;;;;12.10;6.17;;;17.20;66.30;;;;;;4992777;28;20445;-78
2023/11/11 06:04:48;;;;;;;7.00;6.00;;;17.20;66.00;;;;;;4984612;28;20508;-75
2023/11/11 06:07:16;;;;;;;8.50;6.47;;;17.10;66.20;;;;;;4991905;28;20477;-75
2023/11/11 06:09:44;;;;;;;7.57;6.30;;;17.20;66.40;;;;;;4992150;28;20461;-76
2023/11/11 06:12:12;;;;;;;7.60;5.80;;;17.10;66.30;;;;;;4975159;28;20450;-76
2023/11/11 06:14:41;;;;;;;7.93;5.80;;;17.20;66.50;;;;;;4990864;28;20936;-76
2023/11/11 06:17:11;;;;;;;7.27;5.57;;;17.20;66.00;;;;;;4995961;28;20540;-76
2023/11/11 06:19:38;;;;;;;6.17;5.03;;;17.20;66.30;;;;;;4995661;28;20519;-76
2023/11/11 06:22:07;;;;;;;5.90;5.17;;;17.20;66.30;;;;;;4996229;28;20531;-76
2023/11/11 06:24:35;;;;;;;6.37;5.40;;;17.20;66.20;;;;;;4987907;28;20552;-76
2023/11/11 06:27:03;;;;;;;6.87;5.03;;;17.20;66.20;;;;;;4992764;28;20472;-76
2023/11/11 06:29:32;;;;;;;5.47;4.80;;;17.20;66.30;;;;;;4988631;28;20484;-76
2023/11/11 06:32:01;;;;;;;6.03;4.77;;;17.10;66.30;;;;;;4978018;28;20548;-76
2023/11/11 06:34:29;;;;;;;6.77;5.37;;;17.20;66.30;;;;;;4976218;28;20536;-76
2023/11/11 06:36:58;;;;;;;5.63;4.80;;;17.10;66.30;;;;;;4994193;28;20484;-76
2023/11/11 06:39:30;;;;;;;5.57;5.00;;;17.10;66.20;;;;;;4995797;28;20542;-76
2023/11/11 06:41:58;;;;;;;7.13;4.83;;;17.10;66.20;;;;;;4980263;28;20456;-75
2023/11/11 06:44:26;;;;;;;6.33;4.83;;;17.10;66.00;;;;;;4996154;28;20445;-75
2023/11/11 06:46:54;;;;;;;5.33;4.83;;;17.10;66.10;;;;;;5005508;28;20547;-75
2023/11/11 06:49:24;;;;;;;6.13;4.70;;;17.10;66.30;;;;;;4984956;28;20553;-76
2023/11/11 06:51:53;;;;;;;5.97;4.83;;;17.10;66.20;;;;;;4987208;28;20441;-75
2023/11/11 06:54:21;;;;;;;4.67;4.23;;;17.10;66.30;;;;;;4988137;28;20444;-75
2023/11/11 06:56:49;;;;;;;4.53;4.13;;;17.10;66.10;;;;;;4992059;28;20453;-76
2023/11/11 06:59:17;;;;;;;6.70;4.57;;;17.10;66.00;;;;;;4994935;28;20428;-75
2023/11/11 07:01:45;;;;;;;4.57;4.00;;;17.10;66.00;;;;;;4994958;28;20495;-75
2023/11/11 07:04:13;;;;;;;4.70;4.20;;;17.10;66.00;;;;;;4994196;28;20441;-76
2023/11/11 07:06:42;;;;;;;4.90;4.50;;;17.10;66.00;;;;;;4995713;28;20460;-76
2023/11/11 07:09:12;;;;;;;5.50;4.07;;;17.10;66.00;;;;;;4990208;28;20528;-76
2023/11/11 07:11:40;;;;;;;5.33;4.13;;;17.10;65.90;;;;;;4976079;28;20537;-76
2023/11/11 07:14:08;;;;;;;5.17;4.33;;;17.10;65.90;;;;;;4993279;28;20542;-76
2023/11/11 07:16:36;;;;;;;4.73;4.23;;;17.10;65.60;;;;;;4992294;28;20855;-76
2023/11/11 07:19:05;;;;;;;4.57;4.17;;;17.20;66.00;;;;;;4995190;28;20472;-76
2023/11/11 07:21:34;;;;;;;8.00;4.27;;;17.10;65.90;;;;;;4995585;28;20445;-76
2023/11/11 07:24:03;;;;;;;4.53;3.93;;;17.10;65.60;;;;;;4995246;28;20420;-76
2023/11/11 07:26:31;;;;;;;4.37;3.97;;;17.10;65.80;;;;;;4994969;28;20576;-76
2023/11/11 07:28:59;;;;;;;5.20;4.00;;;17.10;65.60;;;;;;4996504;28;20558;-76
2023/11/11 07:31:27;;;;;;;4.70;4.20;;;17.10;65.80;;;;;;4986753;28;20884;-76
2023/11/11 07:33:55;;;;;;;4.40;4.00;;;17.20;65.40;;;;;;4998709;28;20450;-76
2023/11/11 07:36:25;;;;;;;4.40;4.00;;;17.10;65.50;;;;;;4992192;28;20449;-76
2023/11/11 07:38:53;;;;;;;4.23;3.40;;;17.20;65.90;;;;;;4991135;28;20508;-76
2023/11/11 07:41:24;;;;;;;3.77;3.47;;;17.20;65.80;;;;;;4989821;28;20453;-76
2023/11/11 07:43:53;;;;;;;8.80;3.60;;;17.20;65.70;;;;;;4993418;28;20445;-76
2023/11/11 07:46:22;;;;;;;4.40;4.00;;;17.20;65.70;;;;;;4980810;28;20437;-76
2023/11/11 07:48:50;;;;;;;3.90;3.50;;;17.20;65.60;;;;;;4975263;28;20536;-76
2023/11/11 07:51:18;;;;;;;3.67;3.37;;;17.20;65.70;;;;;;4975329;28;20446;-76
2023/11/11 07:53:48;;;;;;;3.43;3.13;;;17.20;65.50;;;;;;4992416;28;20512;-76
2023/11/11 07:56:17;;;;;;;4.50;3.30;;;17.20;65.50;;;;;;4994142;28;20470;-77
2023/11/11 07:58:47;;;;;;;3.27;3.07;;;17.30;65.40;;;;;;4993948;28;20482;-76
2023/11/11 08:01:17;;;;;;;3.27;3.07;;;17.20;65.10;;;;;;4983895;28;20438;-77
2023/11/11 08:03:44;;;;;;;3.47;3.07;;;17.20;65.60;;;;;;4983507;28;20520;-76
2023/11/11 08:06:12;;;;;;;4.57;3.60;;;17.20;65.70;;;;;;4988840;28;20449;-76
2023/11/11 08:08:41;;;;;;;4.53;3.67;;;17.30;65.60;;;;;;4994258;28;20540;-76
2023/11/11 08:11:10;;;;;;;3.30;3.10;;;17.30;65.40;;;;;;4994282;28;20558;-76
2023/11/11 08:13:38;;;;;;;4.70;3.90;;;17.30;65.40;;;;;;4994344;28;20449;-76
2023/11/11 08:16:08;;;;;;;3.30;3.00;;;17.30;65.00;;;;;;4994493;28;20540;-76
2023/11/11 08:18:36;;;;;;;3.47;3.17;;;17.30;65.50;;;;;;4994354;28;20528;-76
2023/11/11 08:21:15;;;;;;;3.50;3.20;;;17.30;65.10;;;;;;5000850;28;20468;-76
2023/11/11 08:23:43;;;;;;;3.30;2.80;;;17.30;65.30;;;;;;4992452;28;20489;-76
2023/11/11 08:26:11;;;;;;;6.60;4.00;;;17.40;65.40;;;;;;4991529;28;20458;-76
2023/11/11 08:28:39;;;;;;;3.40;3.00;;;17.40;65.40;;;;;;4982294;28;20488;-76
2023/11/11 08:31:08;;;;;;;2.97;2.77;;;17.40;65.20;;;;;;4987702;28;20485;-76
2023/11/11 08:33:36;;;;;;;2.80;2.60;;;17.40;65.20;;;;;;4995369;28;20496;-76
2023/11/11 08:36:05;;;;;;;3.93;3.20;;;17.40;65.30;;;;;;4985518;28;20496;-76
2023/11/11 08:38:33;;;;;;;2.70;2.50;;;17.40;65.40;;;;;;4989408;28;20508;-78
2023/11/11 08:41:02;;;;;;;2.80;2.60;;;17.50;65.40;;;;;;4994066;28;20441;-76
2023/11/11 08:43:29;;;;;;;3.20;3.00;;;17.50;65.40;;;;;;4986742;28;20445;-76
2023/11/11 08:45:58;;;;;;;2.87;2.67;;;17.50;65.20;;;;;;4994559;28;20468;-77
2023/11/11 08:48:30;;;;;;;2.97;2.77;;;17.50;65.50;;;;;;4994067;28;20484;-77
2023/11/11 08:51:00;;;;;;;2.60;2.40;;;17.50;65.50;;;;;;4981122;28;20461;-77
2023/11/11 08:53:30;;;;;;;3.07;2.73;;;17.50;65.50;;;;;;4975111;28;20481;-77
2023/11/11 08:55:58;;;;;;;2.87;2.67;;;17.50;65.20;;;;;;4991925;28;20442;-78
2023/11/11 08:58:26;;;;;;;2.70;2.50;;;17.50;65.50;;;;;;4994059;28;20548;-77
2023/11/11 09:00:54;;;;;;;2.60;2.40;;;17.60;65.50;;;;;;4993062;28;20457;-77
2023/11/11 09:03:22;;;;;;;2.90;2.53;;;17.60;65.50;;;;;;4991722;28;20492;-77
2023/11/11 09:05:51;;;;;;;2.60;2.40;;;17.70;65.60;;;;;;4993272;28;20998;-77
2023/11/11 09:08:19;;;;;;;3.17;2.87;;;17.70;65.50;;;;;;4993229;28;20488;-77
2023/11/11 09:10:47;;;;;;;2.27;2.17;;;17.70;65.70;;;;;;4980215;28;20537;-76
2023/11/11 09:13:17;;;;;;;2.60;2.40;;;17.70;65.50;;;;;;4998158;28;20540;-76
2023/11/11 09:15:45;;;;;;;2.57;2.40;;;17.80;65.70;;;;;;4991046;28;20446;-76
2023/11/11 09:18:14;;;;;;;2.50;2.40;;;17.80;65.60;;;;;;4989363;28;20472;-76
2023/11/11 09:20:45;;;;;;;2.63;2.43;;;17.90;65.60;;;;;;4995493;28;20457;-77
2023/11/11 09:23:15;;;;;;;2.73;2.53;;;18.00;65.30;;;;;;4994104;28;20415;-76
2023/11/11 09:25:44;;;;;;;2.80;2.60;;;18.00;65.50;;;;;;4987894;28;20498;-78
2023/11/11 09:28:14;;;;;;;2.70;2.50;;;18.10;65.40;;;;;;4997095;28;21018;-77
2023/11/11 09:30:43;;;;;;;2.80;2.60;;;18.10;65.00;;;;;;4994356;28;20449;-75
2023/11/11 09:33:12;;;;;;;2.33;2.13;;;18.20;65.20;;;;;;4989470;28;20461;-75
2023/11/11 09:35:40;;;;;;;2.50;2.40;;;18.20;65.20;;;;;;4993231;28;20452;-75
2023/11/11 09:38:11;;;;;;;2.20;2.10;;;18.20;65.20;;;;;;4996202;28;20472;-76
2023/11/11 09:40:40;;;;;;;2.23;2.13;;;18.20;65.00;;;;;;4997239;28;20491;-74
2023/11/11 09:43:09;;;;;;;2.93;2.30;;;18.20;65.30;;;;;;4983157;28;20454;-75
2023/11/11 09:45:39;;;;;;;2.80;2.50;;;18.10;65.10;;;;;;4995760;28;20536;-76
2023/11/11 09:48:08;;;;;;;2.33;2.20;;;18.10;65.20;;;;;;4996633;28;20479;-75
2023/11/11 09:50:38;;;;;;;2.27;2.17;;;18.10;65.10;;;;;;4986481;28;20479;-75
2023/11/11 09:53:07;;;;;;;2.63;2.43;;;18.00;65.10;;;;;;5001206;28;20451;-76
2023/11/11 09:55:36;;;;;;;2.17;2.00;;;18.00;65.10;;;;;;4991022;28;20452;-76
2023/11/11 09:58:06;;;;;;;2.70;2.50;;;18.00;65.40;;;;;;4984609;28;20475;-76
2023/11/11 10:00:34;;;;;;;2.70;2.50;;;18.00;65.30;;;;;;4984611;28;20529;-75
2023/11/11 10:03:02;;;;;;;3.63;2.70;;;17.90;65.20;;;;;;4981474;28;20524;-76
2023/11/11 10:05:31;;;;;;;2.77;2.57;;;17.80;65.30;;;;;;4988511;28;20453;-75
2023/11/11 10:07:59;;;;;;;2.60;2.40;;;17.80;65.20;;;;;;4982013;28;20489;-75
2023/11/11 10:10:27;;;;;;;2.23;2.10;;;17.80;65.30;;;;;;4999946;28;20496;-76
2023/11/11 10:12:56;;;;;;;2.50;1.90;;;17.80;65.40;;;;;;5008586;28;20433;-75
2023/11/11 10:15:26;;;;;;;2.17;2.07;;;17.80;65.60;;;;;;4991931;28;20453;-75
2023/11/11 10:17:54;;;;;;;2.03;1.93;;;17.80;65.50;;;;;;4994029;28;20471;-75
2023/11/11 10:20:25;;;;;;;2.10;2.00;;;17.70;65.70;;;;;;5002126;28;20441;-74
2023/11/11 10:22:53;;;;;;;2.40;2.30;;;17.70;65.60;;;;;;4993505;28;20488;-74
2023/11/11 10:25:21;;;;;;;2.20;2.00;;;17.70;65.40;;;;;;4997166;28;21007;-76
2023/11/11 10:27:50;;;;;;;2.80;2.23;;;17.70;65.70;;;;;;4994722;28;20481;-74
2023/11/11 10:30:19;;;;;;;2.00;1.90;;;17.70;65.50;;;;;;4985783;28;20990;-74
2023/11/11 10:32:50;;;;;;;2.17;1.97;;;17.70;65.70;;;;;;4990586;28;20472;-75
2023/11/11 10:35:18;;;;;;;2.53;2.33;;;17.70;65.70;;;;;;4994213;28;20452;-75
2023/11/11 10:37:47;;;;;;;2.40;2.20;;;17.70;65.30;;;;;;4998217;28;20499;-76
2023/11/11 10:40:17;;;;;;;2.27;2.17;;;17.70;65.60;;;;;;4999642;28;20441;-75
2023/11/11 10:42:47;;;;;;;2.60;2.50;;;17.70;65.30;;;;;;4995842;28;20819;-75
2023/11/11 10:45:15;;;;;;;2.00;1.90;;;17.70;65.80;;;;;;4990536;28;20479;-75
2023/11/11 10:47:44;;;;;;;2.13;2.03;;;17.70;65.70;;;;;;4998518;28;20485;-75
2023/11/11 10:50:14;;;;;;;2.00;1.90;;;17.70;65.60;;;;;;4995358;28;20447;-75
2023/11/11 10:52:43;;;;;;;2.30;2.10;;;17.70;65.30;;;;;;4990228;28;20565;-74
2023/11/11 10:55:11;;;;;;;2.20;2.00;;;17.70;65.60;;;;;;4986456;28;20473;-75
2023/11/11 10:57:40;;;;;;;2.20;2.00;;;17.70;65.60;;;;;;4992804;28;20555;-75
2023/11/11 11:00:16;;;;;;;1.30;0.90;;;17.70;65.60;;;;;;5004317;28;20921;-76
2023/11/11 11:02:46;;;;;;;3.00;1.30;;;16.90;58.70;;;;;;4991419;28;20495;-76
2023/11/11 11:05:18;;;;;;;3.17;1.67;;;14.60;65.10;;;;;;4992597;28;20445;-76
2023/11/11 11:07:51;;;;;;;2.50;1.40;;;13.70;70.20;;;;;;4983503;28;20462;-76
2023/11/11 11:10:22;;;;;;;1.90;1.80;;;13.10;71.90;;;;;;4990955;28;20472;-77
2023/11/11 11:12:53;;;;;;;2.10;1.80;;;12.70;76.60;;;;;;4995121;28;20453;-79
2023/11/11 11:15:21;;;;;;;1.90;1.57;;;12.20;76.30;;;;;;4996456;28;20516;-79
2023/11/11 11:17:51;;;;;;;2.73;1.80;;;11.70;81.20;;;;;;4989286;28;20560;-78
2023/11/11 11:20:24;;;;;;;5.27;2.50;;;11.70;84.30;;;;;;4999587;28;20430;-78
2023/11/11 11:23:04;;;;;;;12.67;8.33;;;11.70;86.70;;;;;;5004608;28;20445;-79
2023/11/11 11:25:33;;;;;;;3.27;1.93;;;11.80;86.50;;;;;;5001471;28;20472;-78
2023/11/11 11:28:19;;;;;;;2.70;2.43;;;11.50;90.20;;;;;;4993372;28;20469;-79
2023/11/11 11:30:50;;;;;;;1.90;1.70;;;11.60;91.30;;;;;;4995971;28;20473;-79
2023/11/11 11:33:21;;;;;;;3.57;2.97;;;11.70;90.50;;;;;;4988630;28;20453;-78
2023/11/11 11:35:52;;;;;;;3.87;3.07;;;12.70;94.20;;;;;;4988015;28;20474;-78
2023/11/11 11:38:28;;;;;;;5.70;2.83;;;13.70;92.10;;;;;;4991972;28;20465;-78
2023/11/11 11:41:00;;;;;;;3.93;2.87;;;14.50;89.50;;;;;;4999879;28;20445;-78
2023/11/11 11:43:30;;;;;;;4.53;3.17;;;15.00;85.10;;;;;;4990670;28;20928;-78
2023/11/11 11:45:58;;;;;;;4.23;2.80;;;15.40;82.10;;;;;;4998407;28;20443;-78
2023/11/11 11:48:27;;;;;;;3.70;2.77;;;15.70;79.70;;;;;;4996725;28;21032;-79
2023/11/11 11:51:08;;;;;;;3.80;3.20;;;15.90;77.50;;;;;;5003345;28;20533;-78
2023/11/11 11:53:36;;;;;;;3.50;2.97;;;16.20;76.30;;;;;;4995095;28;20498;-78
2023/11/11 11:56:06;;;;;;;4.90;3.50;;;16.40;75.20;;;;;;4995834;28;20426;-78
2023/11/11 11:58:47;;;;;;;4.60;3.10;;;16.60;74.60;;;;;;4996557;28;20500;-77
2023/11/11 12:01:25;;;;;;;3.40;2.90;;;16.80;72.90;;;;;;4984307;28;20446;-76
2023/11/11 12:03:58;;;;;;;3.80;3.03;;;16.90;72.00;;;;;;4991050;28;20452;-80
2023/11/11 12:06:37;;;;;;;5.00;3.73;;;17.00;72.00;;;;;;4982897;28;20518;-78
2023/11/11 12:09:09;;;;;;;6.77;3.50;;;17.10;71.00;;;;;;4982657;28;20462;-78
2023/11/11 12:11:38;;;;;;;5.67;3.90;;;17.10;70.20;;;;;;4981781;28;20482;-79
2023/11/11 12:14:08;;;;;;;7.23;3.63;;;17.10;70.20;;;;;;4979600;28;20454;-78
2023/11/11 12:16:40;;;;;;;9.67;4.30;;;17.20;69.90;;;;;;4992765;28;20450;-78
2023/11/11 12:19:10;;;;;;;4.90;4.00;;;17.20;69.70;;;;;;4994177;28;20477;-77
2023/11/11 12:21:43;;;;;;;5.60;4.47;;;17.30;69.30;;;;;;4995802;28;20442;-77
2023/11/11 12:24:12;;;;;;;6.53;4.33;;;17.30;69.00;;;;;;4980753;28;20445;-77
2023/11/11 12:26:41;;;;;;;5.60;4.23;;;17.30;69.10;;;;;;4981883;28;20510;-78
2023/11/11 12:29:09;;;;;;;9.20;4.63;;;17.40;68.90;;;;;;4982901;28;20569;-78
2023/11/11 12:31:44;;;;;;;7.50;4.53;;;17.40;68.80;;;;;;4975730;28;20513;-77
2023/11/11 12:34:14;;;;;;;8.03;4.80;;;17.40;68.60;;;;;;4980923;28;20449;-76
2023/11/11 12:36:44;;;;;;;7.50;4.67;;;17.40;68.60;;;;;;4974371;28;20950;-76
2023/11/11 12:39:14;;;;;;;5.33;4.50;;;17.40;68.40;;;;;;4976478;28;20557;-77
2023/11/11 12:41:47;;;;;;;10.23;5.30;;;17.40;68.60;;;;;;4980465;28;20442;-77
2023/11/11 12:44:15;;;;;;;7.47;4.97;;;17.40;68.50;;;;;;4979070;28;20557;-77
2023/11/11 12:46:44;;;;;;;7.97;5.30;;;17.40;68.20;;;;;;4992710;28;20449;-77
2023/11/11 12:49:14;;;;;;;7.70;5.23;;;17.40;68.10;;;;;;4992852;28;20480;-78
2023/11/11 12:51:42;;;;;;;6.70;5.10;;;17.40;68.30;;;;;;4989995;28;20474;-78
2023/11/11 12:54:12;;;;;;;6.33;4.50;;;17.40;68.00;;;;;;4980775;28;20452;-78
2023/11/11 12:56:48;;;;;;;6.60;4.80;;;17.40;68.00;;;;;;4982405;28;20460;-77